Time;durP1;ratioP1;P1;durP2;ratioP2;P2;SDS_P1;SDS_P2;PMS_P1;PMS_P2;Temp;Humidity;BMP_temperature;BMP_pressure;BME280_temperature;BME280_humidity;BME280_pressure;Samples;Min_cycle;Max_cycle;Signal;HPM_P1;HPM_P2
2022/09/01 00:00:05;;;;;;;34.67;15.87;;;;;;;-145.69;100.00;71637.19;5073757;28;20203;-75
2022/09/01 00:02:31;;;;;;;28.73;15.67;;;;;;;-145.69;100.00;71637.19;5073892;28;20210;-76
2022/09/01 00:04:58;;;;;;;29.43;15.03;;;;;;;-145.69;100.00;71645.16;5073545;28;20268;-76
2022/09/01 00:07:26;;;;;;;32.70;15.77;;;;;;;-145.69;100.00;71641.19;5073766;28;20684;-75
2022/09/01 00:09:53;;;;;;;33.67;16.90;;;;;;;-145.69;100.00;71637.19;5073819;28;20198;-76
2022/09/01 00:12:21;;;;;;;28.13;15.23;;;;;;;-145.69;100.00;71645.16;5073856;28;20202;-76
2022/09/01 00:14:48;;;;;;;30.93;16.50;;;;;;;-145.69;100.00;71647.16;5073608;28;20683;-76
2022/09/01 00:17:15;;;;;;;32.80;16.00;;;;;;;-145.69;100.00;71645.16;5073595;28;20222;-78
2022/09/01 00:19:41;;;;;;;27.40;15.07;;;;;;;-145.69;100.00;71663.06;5073707;28;20560;-76
2022/09/01 00:22:08;;;;;;;25.43;13.93;;;;;;;-145.69;100.00;71675.00;5073784;28;20214;-76
2022/09/01 00:24:35;;;;;;;29.87;15.30;;;;;;;-145.69;100.00;71669.03;5073513;28;20710;-76
2022/09/01 00:27:04;;;;;;;26.20;14.30;;;;;;;-145.69;100.00;71673.03;5073573;28;20221;-76
2022/09/01 00:29:30;;;;;;;36.60;17.87;;;;;;;-145.69;100.00;71663.06;5073472;28;20229;-76
2022/09/01 00:31:57;;;;;;;37.27;17.73;;;;;;;-145.69;100.00;71657.09;5073266;28;20637;-76
2022/09/01 00:34:23;;;;;;;36.33;17.73;;;;;;;-145.69;100.00;71655.13;5072997;28;20226;-76
2022/09/01 00:36:50;;;;;;;31.30;15.83;;;;;;;-145.69;100.00;71665.06;5071969;28;20677;-76
2022/09/01 00:39:17;;;;;;;33.90;17.50;;;;;;;-145.69;100.00;71653.13;5073009;28;20203;-76
2022/09/01 00:41:44;;;;;;;37.23;18.77;;;;;;;-145.69;100.00;71657.09;5072852;28;20546;-76
2022/09/01 00:44:14;;;;;;;35.30;18.37;;;;;;;-145.69;100.00;71645.16;5072144;28;20199;-75
2022/09/01 00:46:42;;;;;;;36.03;18.97;;;;;;;-145.69;100.00;71651.13;5073080;28;20214;-76
2022/09/01 00:49:12;;;;;;;37.17;18.30;;;;;;;-145.69;100.00;71653.13;5072285;28;20238;-76
2022/09/01 00:51:43;;;;;;;46.07;17.77;;;;;;;-145.69;100.00;71645.16;5072676;28;20194;-76
2022/09/01 00:54:14;;;;;;;31.63;18.53;;;;;;;-145.69;100.00;71651.13;5070418;28;20276;-75
2022/09/01 00:56:42;;;;;;;37.60;19.13;;;;;;;-145.69;100.00;71653.13;5072882;28;20202;-75
2022/09/01 00:59:12;;;;;;;38.53;19.23;;;;;;;-145.69;100.00;71649.16;5059421;28;20202;-75
2022/09/01 01:01:39;;;;;;;39.97;19.67;;;;;;;-145.69;100.00;71649.16;5053156;28;20203;-76
2022/09/01 01:04:13;;;;;;;37.83;20.07;;;;;;;-145.69;100.00;71647.16;5064905;28;20210;-76
2022/09/01 01:06:40;;;;;;;36.57;18.50;;;;;;;-145.69;100.00;71657.09;5073070;28;20294;-76
2022/09/01 01:09:07;;;;;;;38.73;20.03;;;;;;;-145.69;100.00;71657.09;5072545;28;20213;-75
2022/09/01 01:11:33;;;;;;;38.47;20.00;;;;;;;-145.69;100.00;71649.16;5072121;28;20209;-76
2022/09/01 01:14:09;;;;;;;40.10;20.00;;;;;;;-145.69;100.00;71653.13;5072573;28;20660;-76
2022/09/01 01:16:42;;;;;;;32.60;18.97;;;;;;;-145.69;100.00;71645.16;5073057;28;20634;-76
2022/09/01 01:23:00;;;;;;;41.03;19.87;;;;;;;-145.69;100.00;71645.16;5072903;28;20245;-76
2022/09/01 01:24:48;;;;;;;34.80;19.27;;;;;;;-145.69;100.00;71653.13;5052746;28;20334;-75
2022/09/01 01:27:16;;;;;;;34.97;21.03;;;;;;;-145.69;100.00;71657.09;5051585;28;20447;-77
2022/09/01 01:29:43;;;;;;;40.03;19.93;;;;;;;-145.69;100.00;71661.09;5051806;28;20561;-76
2022/09/01 01:32:11;;;;;;;43.70;19.80;;;;;;;-145.69;100.00;71653.13;5071456;28;20229;-75
2022/09/01 01:34:42;;;;;;;33.40;18.43;;;;;;;-145.69;100.00;71661.09;5072161;28;20609;-76
2022/09/01 01:37:12;;;;;;;40.13;20.07;;;;;;;-145.69;100.00;71657.09;5073125;28;20199;-76
2022/09/01 01:39:41;;;;;;;43.27;20.23;;;;;;;-145.69;100.00;71649.16;5071351;28;20657;-77
2022/09/01 01:42:11;;;;;;;54.60;22.00;;;;;;;-145.69;100.00;71645.16;5071969;28;20195;-75
2022/09/01 01:44:39;;;;;;;43.20;20.70;;;;;;;-145.69;100.00;71649.16;5071695;28;20202;-75
2022/09/01 01:47:11;;;;;;;42.43;21.07;;;;;;;-145.69;100.00;71649.16;5071730;28;20281;-75
2022/09/01 01:49:42;;;;;;;42.50;21.33;;;;;;;-145.69;100.00;71669.03;5072400;28;20258;-77
2022/09/01 01:52:10;;;;;;;46.87;22.90;;;;;;;-145.69;100.00;71665.06;5072477;28;20804;-75
2022/09/01 01:54:37;;;;;;;40.50;19.90;;;;;;;-145.69;100.00;71688.94;5072304;28;20716;-77
2022/09/01 01:57:04;;;;;;;46.03;20.87;;;;;;;-145.69;100.00;71696.91;5071922;28;20298;-77
2022/09/01 01:59:32;;;;;;;35.50;19.80;;;;;;;-145.69;100.00;71696.91;5072389;28;20199;-76
2022/09/01 02:02:00;;;;;;;36.53;19.83;;;;;;;-145.69;100.00;71706.84;5071815;28;20657;-75
2022/09/01 02:04:32;;;;;;;49.67;24.00;;;;;;;-145.69;100.00;71692.94;5072441;28;20206;-76
2022/09/01 02:07:00;;;;;;;76.90;34.10;;;;;;;-145.69;100.00;71637.19;5072397;28;20222;-76
2022/09/01 02:09:26;;;;;;;66.10;31.10;;;;;;;-145.69;100.00;71633.22;5072218;28;20199;-76
2022/09/01 02:11:54;;;;;;;61.53;28.30;;;;;;;-145.69;100.00;71625.25;5072089;28;20207;-77
2022/09/01 02:14:20;;;;;;;67.87;30.83;;;;;;;-145.69;100.00;71613.31;5072347;28;20268;-75
2022/09/01 02:16:49;;;;;;;69.33;30.40;;;;;;;-145.69;100.00;71605.38;5072424;28;20199;-77
2022/09/01 02:19:18;;;;;;;89.50;34.63;;;;;;;-145.69;100.00;71575.50;5072391;28;20199;-75
2022/09/01 02:21:47;;;;;;;74.33;31.30;;;;;;;-145.69;100.00;71565.56;5072227;28;20210;-78
2022/09/01 02:24:14;;;;;;;73.45;29.85;;;;;;;-145.69;100.00;71561.59;5074816;28;20210;-76
2022/09/01 02:26:46;;;;;;;78.63;32.47;;;;;;;-145.69;100.00;71541.69;5075972;28;20194;-77
2022/09/01 02:29:17;;;;;;;70.47;30.47;;;;;;;-145.69;100.00;71535.72;5075628;28;20256;-76
2022/09/01 02:31:45;;;;;;;70.27;30.40;;;;;;;-145.69;100.00;71529.75;5075218;28;20202;-76
2022/09/01 02:34:13;;;;;;;65.03;29.00;;;;;;;-145.69;100.00;71525.78;5073508;28;20768;-76
2022/09/01 02:36:43;;;;;;;56.67;27.17;;;;;;;-145.69;100.00;71527.75;5075242;28;20194;-77
2022/09/01 02:39:09;;;;;;;57.60;28.33;;;;;;;-145.69;100.00;71525.78;5075287;28;20206;-76
2022/09/01 02:41:36;;;;;;;51.85;28.60;;;;;;;-145.69;100.00;71509.84;5074389;28;21056;-77
2022/09/01 02:44:04;;;;;;;47.93;24.83;;;;;;;-145.69;100.00;71513.81;5075613;28;20604;-76
2022/09/01 02:46:31;;;;;;;47.30;23.35;;;;;;;-145.69;100.00;71519.81;5075431;28;20202;-76
2022/09/01 02:48:59;;;;;;;44.60;22.48;;;;;;;-145.69;100.00;71525.78;5072385;28;20276;-76
2022/09/01 02:51:27;;;;;;;43.40;22.52;;;;;;;-145.69;100.00;71527.75;5055355;28;20658;-76
2022/09/01 02:53:53;;;;;;;45.77;22.63;;;;;;;-145.69;100.00;71507.84;5055549;28;20204;-76
2022/09/01 02:56:22;;;;;;;44.63;22.77;;;;;;;-145.69;100.00;71517.81;5055318;28;20289;-75
2022/09/01 02:58:49;;;;;;;38.23;20.50;;;;;;;-145.69;100.00;71517.81;5055323;28;20207;-75
2022/09/01 03:01:19;;;;;;;36.50;19.90;;;;;;;-145.69;100.00;71527.75;5057705;28;20195;-75
2022/09/01 03:03:45;;;;;;;41.17;21.13;;;;;;;-145.69;100.00;71519.81;5072971;28;20646;-75
2022/09/01 03:06:13;;;;;;;39.23;20.70;;;;;;;-145.69;100.00;71513.81;5075098;28;20289;-77
2022/09/01 03:08:41;;;;;;;34.83;19.20;;;;;;;-145.69;100.00;71511.84;5073894;28;20569;-77
2022/09/01 03:11:09;;;;;;;37.73;19.50;;;;;;;-145.69;100.00;71511.84;5075093;28;20203;-76
2022/09/01 03:13:37;;;;;;;34.63;17.83;;;;;;;-145.69;100.00;71513.81;5074964;28;20203;-76
2022/09/01 03:16:04;;;;;;;35.53;17.77;;;;;;;-145.69;100.00;71501.88;5074888;28;20230;-76
2022/09/01 03:18:31;;;;;;;27.93;16.17;;;;;;;-145.69;100.00;71497.91;5074287;28;20224;-76
2022/09/01 03:20:58;;;;;;;27.23;14.90;;;;;;;-145.69;100.00;71505.88;5074202;28;20293;-77
2022/09/01 03:23:26;;;;;;;26.37;15.17;;;;;;;-145.69;100.00;71513.81;5074365;28;20260;-76
2022/09/01 03:25:54;;;;;;;28.90;16.13;;;;;;;-145.69;100.00;71515.81;5074271;28;20821;-76
2022/09/01 03:28:20;;;;;;;26.87;15.27;;;;;;;-145.69;100.00;71517.81;5074233;28;20292;-76
2022/09/01 03:30:51;;;;;;;27.83;15.18;;;;;;;-145.69;100.00;71525.78;5073554;28;20206;-76
2022/09/01 03:33:19;;;;;;;26.07;15.00;;;;;;;-145.69;100.00;71531.75;5074849;28;20194;-75
2022/09/01 03:35:46;;;;;;;26.57;15.20;;;;;;;-145.69;100.00;71531.75;5073836;28;20230;-76
2022/09/01 03:38:21;;;;;;;26.73;15.67;;;;;;;-145.69;100.00;71541.69;5074506;28;20256;-76
2022/09/01 03:40:49;;;;;;;27.03;14.03;;;;;;;-145.69;100.00;71545.66;5074526;28;20206;-76
2022/09/01 03:43:18;;;;;;;30.07;16.63;;;;;;;-145.69;100.00;71531.75;5074115;28;20199;-76
2022/09/01 03:45:46;;;;;;;31.23;16.70;;;;;;;-145.69;100.00;71511.84;5074232;28;20256;-76
2022/09/01 03:48:15;;;;;;;31.30;17.13;;;;;;;-145.69;100.00;71503.88;5074320;28;20229;-76
2022/09/01 03:50:45;;;;;;;32.05;16.70;;;;;;;-145.69;100.00;71499.91;5074129;28;20235;-76
2022/09/01 03:53:13;;;;;;;27.98;15.82;;;;;;;-145.69;100.00;71478.00;5074335;28;20743;-76
2022/09/01 03:55:39;;;;;;;30.05;15.77;;;;;;;-145.69;100.00;71482.00;5073294;28;20257;-77
2022/09/01 03:58:08;;;;;;;28.03;14.77;;;;;;;-145.69;100.00;71474.03;5071329;28;20714;-76
2022/09/01 04:00:39;;;;;;;25.50;14.35;;;;;;;-145.69;100.00;71482.00;5074216;28;20203;-76
2022/09/01 04:03:08;;;;;;;30.23;15.48;;;;;;;-145.69;100.00;71470.06;5074070;28;20210;-76
2022/09/01 04:05:36;;;;;;;28.17;15.88;;;;;;;-145.69;100.00;71464.09;5074054;28;20199;-76
2022/09/01 04:08:05;;;;;;;23.70;14.77;;;;;;;-145.69;100.00;71454.13;5073909;28;20294;-76
2022/09/01 04:10:33;;;;;;;30.10;15.00;;;;;;;-145.69;100.00;71462.09;5073692;28;20199;-76
2022/09/01 04:13:00;;;;;;;26.58;15.27;;;;;;;-145.69;100.00;71462.09;5073952;28;20198;-76
2022/09/01 04:15:27;;;;;;;22.48;14.13;;;;;;;-145.69;100.00;71450.16;5073477;28;20280;-75
2022/09/01 04:18:11;;;;;;;25.58;14.20;;;;;;;-145.69;100.00;71462.09;5073852;28;20584;-75
2022/09/01 04:20:48;;;;;;;25.77;13.23;;;;;;;-145.69;100.00;71462.09;5073643;28;20203;-76
2022/09/01 04:23:24;;;;;;;24.20;13.98;;;;;;;-145.69;100.00;71462.09;5073778;28;20186;-76
2022/09/01 04:25:52;;;;;;;23.63;14.10;;;;;;;-145.69;100.00;71458.09;5073746;28;20220;-77
2022/09/01 04:28:23;;;;;;;25.63;14.27;;;;;;;-145.69;100.00;71454.13;5073600;28;20202;-76
2022/09/01 04:30:54;;;;;;;26.83;13.43;;;;;;;-145.69;100.00;71450.16;5073579;28;20194;-76
2022/09/01 04:33:24;;;;;;;22.17;13.95;;;;;;;-145.69;100.00;71448.16;5073346;28;20256;-75
2022/09/01 04:35:55;;;;;;;23.98;14.27;;;;;;;-145.69;100.00;71456.13;5073426;28;20589;-77
2022/09/01 04:38:23;;;;;;;22.90;13.13;;;;;;;-145.69;100.00;71474.03;5069538;28;20269;-76
2022/09/01 04:40:50;;;;;;;26.17;13.73;;;;;;;-145.69;100.00;71466.06;5071539;28;20202;-76
2022/09/01 04:43:17;;;;;;;18.40;12.07;;;;;;;-145.69;100.00;71460.09;5071083;28;20256;-76
2022/09/01 04:45:48;;;;;;;21.90;12.95;;;;;;;-145.69;100.00;71446.16;5073003;28;20542;-76
2022/09/01 04:48:14;;;;;;;19.75;10.93;;;;;;;-145.69;100.00;71448.16;5072576;28;20203;-77
2022/09/01 04:50:42;;;;;;;19.35;11.23;;;;;;;-145.69;100.00;71444.19;5073220;28;20241;-76
2022/09/01 04:53:10;;;;;;;19.83;11.85;;;;;;;-145.69;100.00;71442.19;5073163;28;20203;-76
2022/09/01 04:55:42;;;;;;;22.10;12.15;;;;;;;-145.69;100.00;71450.16;5073138;28;20236;-76
2022/09/01 04:58:09;;;;;;;22.73;12.05;;;;;;;-145.69;100.00;71448.16;5073098;28;20205;-76
2022/09/01 05:00:36;;;;;;;20.38;12.07;;;;;;;-145.69;100.00;71446.16;5073060;28;20202;-76
2022/09/01 05:03:04;;;;;;;20.60;12.25;;;;;;;-145.69;100.00;71434.22;5073232;28;20203;-76
2022/09/01 05:05:41;;;;;;;23.13;12.52;;;;;;;-145.69;100.00;71438.22;5073293;28;20613;-76
2022/09/01 05:08:12;;;;;;;18.35;11.38;;;;;;;-145.69;100.00;71436.22;5072859;28;20220;-76
2022/09/01 05:10:41;;;;;;;18.67;10.52;;;;;;;-145.69;100.00;71430.25;5073046;28;20195;-76
2022/09/01 05:13:08;;;;;;;18.25;10.50;;;;;;;-145.69;100.00;71434.22;5072813;28;20234;-76
2022/09/01 05:15:36;;;;;;;19.10;11.45;;;;;;;-145.69;100.00;71424.28;5072976;28;20248;-76
2022/09/01 05:18:08;;;;;;;18.73;11.68;;;;;;;-145.69;100.00;71424.28;5072422;28;20434;-77
2022/09/01 05:20:37;;;;;;;15.55;9.10;;;;;;;-145.69;100.00;71446.16;5071773;28;20195;-76
2022/09/01 05:23:03;;;;;;;20.00;9.82;;;;;;;-145.69;100.00;71460.09;5069518;28;20225;-76
2022/09/01 05:25:37;;;;;;;13.75;9.05;;;;;;;-145.69;100.00;71478.00;5072200;28;20226;-76
2022/09/01 05:28:04;;;;;;;17.45;10.60;;;;;;;-145.69;100.00;71470.06;5072421;28;20293;-75
2022/09/01 05:30:30;;;;;;;13.93;9.07;;;;;;;-145.69;100.00;71466.06;5072526;28;20205;-76
2022/09/01 05:32:57;;;;;;;16.98;10.38;;;;;;;-145.69;100.00;71468.06;5072484;28;20206;-75
2022/09/01 05:35:25;;;;;;;15.05;9.10;;;;;;;-145.69;100.00;71466.06;5072466;28;20636;-76
2022/09/01 05:37:51;;;;;;;16.67;10.13;;;;;;;-145.69;100.00;71468.06;5072390;28;20199;-76
2022/09/01 05:40:18;;;;;;;16.27;10.13;;;;;;;-145.69;100.00;71458.09;5076263;28;20221;-76
2022/09/01 05:42:46;;;;;;;15.60;9.85;;;;;;;-145.69;100.00;71442.19;5077475;28;20205;-76
2022/09/01 05:45:13;;;;;;;17.85;11.00;;;;;;;-145.69;100.00;71432.25;5073311;28;20669;-76
2022/09/01 05:47:40;;;;;;;18.42;11.50;;;;;;;-145.69;100.00;71404.38;5072790;28;20199;-76
2022/09/01 05:50:09;;;;;;;15.35;9.68;;;;;;;-145.69;100.00;71390.47;5071998;28;20247;-76
2022/09/01 05:52:37;;;;;;;14.85;9.60;;;;;;;-145.69;100.00;71368.56;5072457;28;20210;-77
2022/09/01 05:55:07;;;;;;;15.68;8.85;;;;;;;-145.69;100.00;71358.63;5072532;28;20213;-76
2022/09/01 05:57:34;;;;;;;15.35;10.32;;;;;;;-145.69;100.00;71344.69;5073096;28;20230;-76
2022/09/01 06:00:09;;;;;;;18.65;10.57;;;;;;;-145.69;100.00;71326.78;5076431;28;20199;-77
2022/09/01 06:02:36;;;;;;;15.43;9.88;;;;;;;-145.69;100.00;71322.81;5076426;28;20232;-76
2022/09/01 06:05:03;;;;;;;14.40;9.25;;;;;;;-145.69;100.00;71316.84;5076186;28;20642;-77
2022/09/01 06:07:29;;;;;;;17.48;9.80;;;;;;;-145.69;100.00;71302.91;5075895;28;20206;-76
2022/09/01 06:09:58;;;;;;;11.95;8.43;;;;;;;-145.69;100.00;71296.94;5076275;28;20260;-76
2022/09/01 06:12:26;;;;;;;12.77;8.50;;;;;;;-145.69;100.00;71286.97;5075954;28;20665;-75
2022/09/01 06:14:54;;;;;;;11.38;7.50;;;;;;;-145.69;100.00;71275.03;5076112;28;20203;-77
2022/09/01 06:17:24;;;;;;;13.82;8.27;;;;;;;-145.69;100.00;71249.19;5075948;28;20231;-77
2022/09/01 06:19:51;;;;;;;13.07;7.80;;;;;;;-145.69;100.00;71247.19;5076399;28;20210;-76
2022/09/01 06:22:19;;;;;;;11.10;7.18;;;;;;;-145.69;100.00;71237.25;5076040;28;20199;-76
2022/09/01 06:24:46;;;;;;;12.88;7.57;;;;;;;-145.69;100.00;71215.34;5075978;28;20218;-76
2022/09/01 06:27:17;;;;;;;10.40;6.88;;;;;;;-145.69;100.00;71215.34;5075905;28;20203;-76
2022/09/01 06:29:44;;;;;;;10.50;6.18;;;;;;;-145.69;100.00;71193.47;5075460;28;20260;-76
2022/09/01 06:32:11;;;;;;;12.88;7.45;;;;;;;-145.69;100.00;71187.50;5075656;28;20255;-76
2022/09/01 06:34:42;;;;;;;12.07;6.88;;;;;;;-145.69;100.00;71159.63;5075584;28;20198;-76
2022/09/01 06:37:08;;;;;;;9.80;6.45;;;;;;;-145.69;100.00;71163.63;5074664;28;20250;-76
2022/09/01 06:39:37;;;;;;;9.45;6.85;;;;;;;-145.69;100.00;71181.53;5075210;28;20198;-76
2022/09/01 06:42:05;;;;;;;11.30;7.40;;;;;;;-145.69;100.00;71197.44;5074791;28;20298;-76
2022/09/01 06:44:32;;;;;;;12.52;7.03;;;;;;;-145.69;100.00;71173.56;5074537;28;20222;-76
2022/09/01 06:46:59;;;;;;;11.05;7.13;;;;;;;-145.69;100.00;71181.53;5075017;28;20210;-75
2022/09/01 06:49:31;;;;;;;12.55;6.95;;;;;;;-145.69;100.00;71179.53;5058071;28;20254;-75
2022/09/01 06:51:59;;;;;;;9.30;6.50;;;;;;;-145.69;100.00;71177.53;5055215;28;20199;-77
2022/09/01 06:54:26;;;;;;;11.15;7.25;;;;;;;-145.69;100.00;71179.53;5055381;28;20566;-76
2022/09/01 06:56:52;;;;;;;11.05;6.95;;;;;;;-145.69;100.00;71197.44;5055210;28;20234;-76
2022/09/01 06:59:19;;;;;;;10.60;7.30;;;;;;;-145.69;100.00;71191.47;5055161;28;20666;-76
2022/09/01 07:01:47;;;;;;;10.45;6.78;;;;;;;-145.69;100.00;71183.50;5055362;28;20535;-76
2022/09/01 07:04:20;;;;;;;11.02;6.30;;;;;;;-145.69;100.00;71171.56;5055290;28;20298;-76
2022/09/01 07:06:49;;;;;;;12.32;6.88;;;;;;;-145.69;100.00;71141.72;5066401;28;20654;-76
2022/09/01 07:09:17;;;;;;;9.80;6.88;;;;;;;-145.69;100.00;71131.78;5074034;28;20191;-76
2022/09/01 07:11:46;;;;;;;12.10;6.63;;;;;;;-145.69;100.00;71123.81;5074635;28;20283;-75
2022/09/01 07:14:15;;;;;;;10.32;6.90;;;;;;;-145.69;100.00;71123.81;5074624;28;20195;-76
2022/09/01 07:16:45;;;;;;;10.88;7.25;;;;;;;-145.69;100.00;71101.94;5074904;28;20262;-77
2022/09/01 07:19:13;;;;;;;9.52;7.25;;;;;;;-145.69;100.00;71099.94;5074949;28;20293;-75
2022/09/01 07:21:41;;;;;;;10.27;6.53;;;;;;;-145.69;100.00;71103.94;5074769;28;20531;-76
2022/09/01 07:24:18;;;;;;;13.13;6.38;;;;;;;-145.69;100.00;71074.09;5074359;28;20203;-75
2022/09/01 07:26:48;;;;;;;8.02;5.70;;;;;;;-145.69;100.00;71060.16;5074179;28;20645;-75
2022/09/01 07:29:18;;;;;;;8.18;5.80;;;;;;;-145.69;100.00;71048.22;5074668;28;20245;-77
2022/09/01 07:31:48;;;;;;;9.35;6.20;;;;;;;-145.69;100.00;71056.16;5074891;28;20203;-77
2022/09/01 07:34:15;;;;;;;7.13;5.22;;;;;;;-145.69;100.00;71028.31;5074268;28;20233;-75
2022/09/01 07:36:45;;;;;;;7.88;4.95;;;;;;;-145.69;100.00;71054.19;5074211;28;20226;-75
2022/09/01 07:39:15;;;;;;;7.13;5.03;;;;;;;-145.69;100.00;71046.22;5074549;28;20199;-77
2022/09/01 07:41:41;;;;;;;7.82;5.28;;;;;;;-145.69;100.00;71062.13;5074499;28;20293;-77
2022/09/01 07:44:13;;;;;;;8.50;5.60;;;;;;;-145.69;100.00;71068.13;5073435;28;20456;-77
2022/09/01 07:46:40;;;;;;;8.93;5.50;;;;;;;-145.69;100.00;71070.09;5074306;28;20574;-77
2022/09/01 07:49:10;;;;;;;7.82;5.25;;;;;;;-145.69;100.00;71058.16;5074022;28;20227;-77
2022/09/01 07:51:42;;;;;;;8.90;5.43;;;;;;;-145.69;100.00;71064.13;5074248;28;20256;-77
2022/09/01 07:54:15;;;;;;;8.23;5.63;;;;;;;-145.69;100.00;71074.09;5073874;28;20195;-75
2022/09/01 07:56:42;;;;;;;11.20;5.95;;;;;;;-145.69;100.00;71078.06;5074105;28;20254;-76
2022/09/01 07:59:15;;;;;;;9.73;5.13;;;;;;;-145.69;100.00;71099.94;5073781;28;20662;-76
2022/09/01 08:01:48;;;;;;;8.05;5.18;;;;;;;-145.69;100.00;71127.81;5073514;28;20557;-76
2022/09/01 08:04:25;;;;;;;7.45;5.30;;;;;;;-145.69;100.00;71123.81;5072674;28;20198;-77
2022/09/01 08:06:53;;;;;;;6.43;4.93;;;;;;;-145.69;100.00;71092.00;5074100;28;20206;-75
2022/09/01 08:09:20;;;;;;;7.35;5.13;;;;;;;-145.69;100.00;71095.97;5073829;28;20242;-76
2022/09/01 08:11:46;;;;;;;7.60;4.68;;;;;;;-145.69;100.00;71074.09;5073857;28;20202;-76
2022/09/01 08:14:16;;;;;;;6.75;4.53;;;;;;;-145.69;100.00;71052.19;5073697;28;20203;-75
2022/09/01 08:16:47;;;;;;;5.32;3.70;;;;;;;-145.69;100.00;71004.44;5073853;28;20226;-75
2022/09/01 08:19:13;;;;;;;5.75;4.43;;;;;;;-145.69;100.00;70978.56;5073766;28;20199;-76
2022/09/01 08:21:42;;;;;;;4.45;3.50;;;;;;;-145.69;97.07;70958.69;5073324;28;20202;-76
2022/09/01 08:24:08;;;;;;;5.38;4.00;;;;;;;-145.69;96.29;71000.47;5071161;28;20261;-76
2022/09/01 08:26:35;;;;;;;6.95;3.63;;;;;;;-145.69;96.28;71028.31;5072317;28;20555;-75
2022/09/01 08:29:02;;;;;;;8.05;3.90;;;;;;;-145.69;97.94;71024.34;5073019;28;20199;-76
2022/09/01 08:31:34;;;;;;;4.38;3.20;;;;;;;-145.69;98.54;71024.34;5073621;28;20202;-76
2022/09/01 08:34:04;;;;;;;5.40;3.53;;;;;;;-145.69;98.51;71024.34;5073506;28;20203;-75
2022/09/01 08:36:33;;;;;;;4.22;3.28;;;;;;;-145.69;99.20;71032.28;5072808;28;20229;-76
2022/09/01 08:39:00;;;;;;;4.65;3.67;;;;;;;-145.69;98.95;71052.19;5073243;28;20649;-76
2022/09/01 08:41:39;;;;;;;5.10;3.67;;;;;;;-145.69;98.37;71050.22;5073320;28;20195;-76
2022/09/01 08:44:18;;;;;;;7.18;3.92;;;;;;;-145.69;97.66;71082.03;5072973;28;20584;-76
2022/09/01 08:46:49;;;;;;;4.15;3.38;;;;;;;-145.69;98.72;71072.09;5073348;28;20203;-77
2022/09/01 08:49:21;;;;;;;4.85;3.63;;;;;;;-145.69;98.86;71052.19;5073050;28;20240;-75
2022/09/01 08:51:51;;;;;;;6.15;3.80;;;;;;;-145.69;100.00;71054.19;5073171;28;20202;-75
2022/09/01 08:54:24;;;;;;;6.68;3.45;;;;;;;-145.69;100.00;71064.13;5071006;28;20199;-76
2022/09/01 08:57:03;;;;;;;6.18;3.63;;;;;;;-145.69;100.00;71052.19;5053007;28;20231;-76
2022/09/01 08:59:30;;;;;;;4.45;3.38;;;;;;;-145.69;100.00;71044.22;5053055;28;20663;-77
2022/09/01 09:02:04;;;;;;;5.13;3.15;;;;;;;-145.69;97.38;71044.22;5070218;28;20191;-77
2022/09/01 09:04:48;;;;;;;3.90;3.05;;;;;;;-145.69;99.58;71028.31;5073174;28;20190;-77
2022/09/01 09:07:34;;;;;;;4.93;3.35;;;;;;;-145.69;96.94;70980.56;5072810;28;20625;-80
2022/09/01 09:10:09;;;;;;;4.80;2.88;;;;;;;-145.69;96.20;70950.72;5072726;28;20206;-76
2022/09/01 09:12:50;;;;;;;3.97;2.70;;;;;;;-145.69;95.90;70908.94;5072435;28;20289;-77
2022/09/01 09:15:30;;;;;;;4.93;3.30;;;;;;;-145.69;93.58;70895.00;5072566;28;20190;-75
2022/09/01 09:18:05;;;;;;;4.60;2.72;;;;;;;-145.69;90.02;70926.84;5072920;28;20228;-76
2022/09/01 09:20:37;;;;;;;3.35;2.60;;;;;;;-145.69;91.22;70920.88;5072742;28;20249;-77
2022/09/01 09:23:18;;;;;;;3.50;2.47;;;;;;;-145.69;93.28;70928.84;5072774;28;20252;-75
2022/09/01 09:25:44;;;;;;;5.18;2.97;;;;;;;-145.69;88.22;70918.88;5072983;28;20202;-76
2022/09/01 09:28:13;;;;;;;4.30;2.70;;;;;;;-145.69;89.58;70916.91;5072818;28;20206;-76
2022/09/01 09:30:40;;;;;;;3.15;2.03;;;;;;;-145.69;89.21;70893.03;5072828;28;20207;-76
2022/09/01 09:33:11;;;;;;;3.88;2.03;;;;;;;-145.69;91.21;70867.16;5073915;28;20229;-75
2022/09/01 09:35:39;;;;;;;3.85;2.38;;;;;;;-145.69;87.78;70863.19;5076905;28;20557;-76
2022/09/01 09:38:27;;;;;;;3.60;1.85;;;;;;;-145.69;86.11;70877.09;5076905;28;20226;-77
2022/09/01 09:41:02;;;;;;;4.75;2.20;;;;;;;-145.69;85.14;70899.00;5076844;28;20206;-77
2022/09/01 09:43:33;;;;;;;3.13;2.33;;;;;;;-145.69;90.47;70897.00;5076627;28;20202;-76
2022/09/01 09:46:28;;;;;;;3.45;2.50;;;;;;;-145.69;86.66;70881.09;5056771;28;20207;-76
2022/09/01 09:49:13;;;;;;;2.38;2.03;;;;;;;-145.69;85.70;70835.31;5056789;28;20285;-76
2022/09/01 09:51:44;;;;;;;3.40;2.60;;;;;;;-145.69;81.44;70855.22;5056630;28;20203;-76
2022/09/01 09:54:15;;;;;;;3.55;2.25;;;;;;;-145.69;85.33;70871.13;5056395;28;20261;-75
2022/09/01 09:56:47;;;;;;;3.38;2.40;;;;;;;-145.69;86.55;70879.09;5056587;28;20317;-76
2022/09/01 09:59:21;;;;;;;2.28;2.08;;;;;;;-145.69;88.46;70861.19;5056585;28;20207;-76
2022/09/01 10:01:52;;;;;;;5.63;2.50;;;;;;;-145.69;87.36;70871.13;5057651;28;20199;-76
2022/09/01 10:04:37;;;;;;;3.42;2.45;;;;;;;-145.69;84.14;70861.19;5076379;28;20199;-76
2022/09/01 10:07:26;;;;;;;4.78;2.42;;;;;;;-145.69;86.26;70797.53;5076375;28;20553;-76
2022/09/01 10:09:54;;;;;;;3.60;2.53;;;;;;;-145.69;83.84;70817.41;5076431;28;20203;-77
2022/09/01 10:12:28;;;;;;;2.28;2.00;;;;;;;-145.69;83.44;70781.59;5076067;28;20209;-75
2022/09/01 10:15:02;;;;;;;4.90;2.95;;;;;;;-145.69;83.09;70797.53;5076140;28;20203;-76
2022/09/01 10:17:33;;;;;;;2.92;2.35;;;;;;;-145.69;80.93;70767.69;5076274;28;20314;-75
2022/09/01 10:20:06;;;;;;;3.33;2.30;;;;;;;-145.69;81.20;70761.72;5076179;28;20210;-79
2022/09/01 10:22:36;;;;;;;4.43;2.50;;;;;;;-145.69;86.95;70729.88;5076078;28;20206;-75
2022/09/01 10:25:07;;;;;;;3.33;2.33;;;;;;;-145.69;80.63;70779.63;5075934;28;20199;-77
2022/09/01 10:27:38;;;;;;;5.22;2.50;;;;;;;-145.69;80.74;70799.50;5075784;28;20199;-78
2022/09/01 10:30:08;;;;;;;4.13;2.47;;;;;;;-145.69;81.01;70795.53;5075743;28;20209;-77
2022/09/01 10:32:40;;;;;;;2.83;2.30;;;;;;;-145.69;82.75;70783.59;5075438;28;20198;-77
2022/09/01 10:35:17;;;;;;;2.47;2.15;;;;;;;-145.69;76.09;70785.59;5075873;28;20596;-76
2022/09/01 10:37:45;;;;;;;2.67;2.28;;;;;;;-145.69;80.49;70761.72;5075616;28;20230;-76
2022/09/01 10:40:44;;;;;;;5.05;2.60;;;;;;;-145.69;84.15;70733.84;5071837;28;20297;-77
2022/09/01 10:43:42;;;;;;;4.00;2.47;;;;;;;-145.69;75.15;70713.97;5059306;28;20198;-78
2022/09/01 10:46:19;;;;;;;4.72;2.50;;;;;;;-145.69;80.43;70678.16;5064171;28;20282;-77
2022/09/01 10:48:49;;;;;;;4.25;2.70;;;;;;;-145.69;76.85;70737.84;5072294;28;20349;-76
2022/09/01 10:51:44;;;;;;;5.00;2.50;;;;;;;-145.69;78.58;70704.00;5061687;28;20239;-75
2022/09/01 10:54:53;;;;;;;2.80;2.47;;;;;;;-145.69;80.25;70739.81;5056216;28;20227;-77
2022/09/01 10:57:38;;;;;;;5.07;2.70;;;;;;;-145.69;76.79;70713.97;5055031;28;20310;-75
2022/09/01 11:01:01;;;;;;;3.80;2.60;;;;;;;-145.69;78.81;70751.75;5055398;28;20203;-77
2022/09/01 11:04:00;;;;;;;5.60;2.60;;;;;;;-145.69;80.72;70686.09;5056423;28;20218;-74
2022/09/01 11:06:47;;;;;;;4.35;2.72;;;;;;;-145.69;79.89;70777.63;5074913;28;20209;-76
2022/09/01 11:09:24;;;;;;;4.15;2.65;;;;;;;-145.69;79.07;70785.59;5074437;28;20199;-75
2022/09/01 11:12:02;;;;;;;4.50;2.33;;;;;;;-145.69;76.93;70785.59;5074685;28;20256;-75
2022/09/01 11:14:34;;;;;;;3.67;2.15;;;;;;;-145.69;76.28;70735.84;5074726;28;20641;-76
2022/09/01 11:17:18;;;;;;;4.32;2.65;;;;;;;-145.69;76.96;70773.66;5074417;28;20646;-77
2022/09/01 11:19:58;;;;;;;3.50;2.38;;;;;;;-145.69;78.00;70769.66;5074772;28;20198;-76